Time;durP1;ratioP1;P1;durP2;ratioP2;P2;SDS_P1;SDS_P2;PMS_P1;PMS_P2;Temp;Humidity;BMP_temperature;BMP_pressure;BME280_temperature;BME280_humidity;BME280_pressure;Samples;Min_cycle;Max_cycle;Signal;HPM_P1;HPM_P2
2023/04/21 00:01:59;;;;;;;8.90;7.80;;;12.00;1.00;;;;;;5037249;28;20436;-83
2023/04/21 00:04:27;;;;;;;10.30;8.97;;;11.70;99.90;;;;;;5008620;28;20427;-84
2023/04/21 00:06:54;;;;;;;11.50;7.37;;;11.80;99.90;;;;;;5027367;28;20455;-85
2023/04/21 00:09:21;;;;;;;16.10;8.27;;;11.80;99.90;;;;;;5026375;28;20487;-84
2023/04/21 00:11:47;;;;;;;9.33;7.70;;;11.80;99.90;;;;;;5025334;28;20490;-84
2023/04/21 00:14:14;;;;;;;12.27;8.57;;;11.70;99.90;;;;;;5025939;28;20486;-83
2023/04/21 00:16:41;;;;;;;12.13;8.03;;;11.70;99.90;;;;;;5026207;28;20515;-84
2023/04/21 00:19:12;;;;;;;11.40;8.13;;;11.60;99.90;;;;;;5025977;28;20451;-84
2023/04/21 00:21:39;;;;;;;16.43;9.27;;;11.60;99.90;;;;;;5025120;28;20440;-84
2023/04/21 00:24:07;;;;;;;11.57;7.87;;;11.50;99.90;;;;;;5036612;23;20550;-87
2023/04/21 00:26:36;;;;;;;13.83;7.93;;;11.50;99.90;;;;;;5025224;28;20524;-87
2023/04/21 00:29:03;;;;;;;9.07;8.00;;;11.50;1.00;;;;;;5029693;28;20432;-87
2023/04/21 00:31:30;;;;;;;13.03;9.03;;;11.40;99.90;;;;;;5029466;28;20487;-86
2023/04/21 00:33:57;;;;;;;10.07;8.63;;;11.40;99.90;;;;;;5028497;28;20511;-87
2023/04/21 00:36:27;;;;;;;10.93;7.90;;;11.30;1.00;;;;;;5032815;28;20464;-87
2023/04/21 00:38:57;;;;;;;7.97;7.17;;;11.30;99.90;;;;;;5031855;28;20463;-87
2023/04/21 00:41:23;;;;;;;8.07;7.23;;;11.30;99.90;;;;;;5032114;28;20441;-86
2023/04/21 00:44:04;;;;;;;15.90;8.50;;;11.20;1.00;;;;;;5022539;28;20558;-87
2023/04/21 00:46:31;;;;;;;13.87;8.60;;;11.20;99.90;;;;;;5022967;28;20440;-87
2023/04/21 00:48:58;;;;;;;12.90;8.80;;;11.20;99.90;;;;;;5024004;28;20539;-88
2023/04/21 00:51:28;;;;;;;14.47;8.60;;;11.20;99.90;;;;;;5022802;28;20507;-87
2023/04/21 00:53:56;;;;;;;16.80;10.67;;;11.20;99.90;;;;;;5023157;28;20988;-88
2023/04/21 00:56:23;;;;;;;11.17;8.50;;;11.10;99.90;;;;;;5033347;28;20476;-87
2023/04/21 00:58:50;;;;;;;12.90;8.30;;;11.10;99.90;;;;;;5022585;28;20452;-86
2023/04/21 01:01:17;;;;;;;14.20;9.07;;;11.10;99.90;;;;;;5021823;28;20547;-87
2023/04/21 01:03:46;;;;;;;18.63;11.60;;;11.00;1.00;;;;;;5023653;28;20563;-87
2023/04/21 01:06:13;;;;;;;15.17;8.63;;;11.00;99.90;;;;;;5022718;28;20444;-88
2023/04/21 01:08:42;;;;;;;10.83;9.13;;;10.90;1.00;;;;;;5022947;28;20448;-87
2023/04/21 01:11:11;;;;;;;14.17;8.90;;;10.90;1.00;;;;;;5023730;28;20490;-87
2023/04/21 01:13:38;;;;;;;15.93;9.63;;;10.70;1.00;;;;;;5019155;28;20518;-88
2023/04/21 01:16:07;;;;;;;12.97;10.63;;;10.80;1.00;;;;;;5026926;28;20475;-89
2023/04/21 01:18:35;;;;;;;12.13;9.30;;;10.80;1.00;;;;;;5030825;28;20464;-88
2023/04/21 01:21:08;;;;;;;13.47;8.40;;;10.90;74.90;;;;;;5024023;28;20477;-88
2023/04/21 01:23:36;;;;;;;20.73;10.30;;;12.30;1.00;;;;;;5022484;28;20479;-88
2023/04/21 01:26:05;;;;;;;19.60;11.20;;;10.70;35.90;;;;;;5038547;28;20416;-88
2023/04/21 01:28:32;;;;;;;13.20;10.80;;;10.90;1.00;;;;;;5038372;28;20442;-88
2023/04/21 01:31:01;;;;;;;11.40;8.97;;;10.30;99.90;;;;;;5038224;28;20448;-90
2023/04/21 01:33:29;;;;;;;13.07;10.00;;;10.80;1.00;;;;;;5032457;28;20467;-88
2023/04/21 01:35:57;;;;;;;13.10;10.07;;;10.60;99.90;;;;;;5020333;28;20542;-89
2023/04/21 01:38:25;;;;;;;11.97;9.80;;;;;;;;;;5029046;28;20452;-88
2023/04/21 01:40:54;;;;;;;15.17;10.43;;;10.80;99.90;;;;;;5026598;28;20436;-90
2023/04/21 01:43:26;;;;;;;12.70;10.70;;;10.60;99.90;;;;;;5025173;28;20470;-90
2023/04/21 01:45:54;;;;;;;16.73;10.83;;;10.60;99.90;;;;;;5030386;28;20438;-89
2023/04/21 01:48:48;;;;;;;;;;;;;;;;;;;;;
2023/04/21 01:54:22;;;;;;;12.30;10.90;;;;;;;;;;5031801;28;20480;-87
2023/04/21 01:56:51;;;;;;;12.30;10.67;;;10.60;99.90;;;;;;5029520;28;20506;-87
2023/04/21 01:59:18;;;;;;;14.50;11.43;;;10.80;1.00;;;;;;5026181;28;20471;-89
2023/04/21 02:01:45;;;;;;;16.73;11.60;;;10.50;99.90;;;;;;5024828;28;20451;-88
2023/04/21 02:04:12;;;;;;;16.37;12.33;;;;;;;;;;5026379;28;20502;-87
2023/04/21 02:06:39;;;;;;;15.70;13.10;;;;;;;;;;5022277;28;20479;-87
2023/04/21 02:09:06;;;;;;;16.13;13.40;;;10.50;99.90;;;;;;5018723;28;20452;-87
2023/04/21 02:11:36;;;;;;;18.20;15.67;;;10.50;99.90;;;;;;5024452;28;20483;-88
2023/04/21 02:14:04;;;;;;;26.10;15.60;;;10.40;99.90;;;;;;5028998;28;20483;-88
2023/04/21 02:16:31;;;;;;;17.57;15.20;;;;;;;;;;5023272;28;20549;-88
2023/04/21 02:18:59;;;;;;;24.93;14.87;;;10.40;99.90;;;;;;5025930;28;20473;-89
2023/04/21 02:21:26;;;;;;;25.03;15.83;;;10.40;99.90;;;;;;5027648;28;20475;-87
2023/04/21 02:23:53;;;;;;;18.77;14.90;;;;;;;;;;5021742;28;20487;-87
2023/04/21 02:26:20;;;;;;;21.63;16.10;;;10.40;99.90;;;;;;5021678;28;20509;-87
2023/04/21 02:28:48;;;;;;;20.17;16.37;;;10.30;99.90;;;;;;5028213;28;20491;-88
2023/04/21 02:31:17;;;;;;;22.27;15.83;;;10.40;99.90;;;;;;5026179;28;20794;-87
2023/04/21 02:33:44;;;;;;;22.77;17.73;;;10.40;99.90;;;;;;5022169;28;20839;-87
2023/04/21 02:36:11;;;;;;;23.17;16.60;;;10.30;99.90;;;;;;5021401;28;20468;-87
2023/04/21 02:38:38;;;;;;;32.17;18.97;;;10.30;99.90;;;;;;5021479;28;20523;-87
2023/04/21 02:41:08;;;;;;;29.43;19.73;;;10.00;99.90;;;;;;5023091;28;20499;-87
2023/04/21 02:43:35;;;;;;;25.33;18.93;;;10.40;99.90;;;;;;5024167;28;20444;-87
2023/04/21 02:46:06;;;;;;;28.00;20.30;;;10.20;99.90;;;;;;5029576;28;20523;-87
2023/04/21 02:48:36;;;;;;;27.00;21.90;;;10.20;99.90;;;;;;5036754;28;20463;-87
2023/04/21 02:51:03;;;;;;;22.83;19.67;;;;;;;;;;5040608;28;20444;-87
2023/04/21 02:53:31;;;;;;;27.00;18.60;;;10.40;99.90;;;;;;5041009;28;20463;-87
2023/04/21 02:56:01;;;;;;;24.50;17.20;;;;;;;;;;5038295;28;20471;-87
2023/04/21 02:58:32;;;;;;;25.90;18.80;;;;;;;;;;5039249;28;20471;-88
2023/04/21 03:00:59;;;;;;;20.93;16.23;;;10.10;99.90;;;;;;5038228;28;20436;-87
2023/04/21 03:03:26;;;;;;;25.60;16.03;;;10.10;99.90;;;;;;5039241;28;20402;-87
2023/04/21 03:05:58;;;;;;;19.50;14.37;;;9.90;99.90;;;;;;5035135;28;20422;-88
2023/04/21 03:08:24;;;;;;;16.93;14.40;;;10.10;73.90;;;;;;5033524;28;20491;-88
2023/04/21 03:10:52;;;;;;;20.93;14.37;;;10.10;93.30;;;;;;5032650;28;20450;-88
2023/04/21 03:13:19;;;;;;;19.10;13.43;;;10.10;99.90;;;;;;5026317;28;20432;-89
2023/04/21 03:15:46;;;;;;;17.93;13.87;;;10.00;42.30;;;;;;5030278;28;20464;-89
2023/04/21 03:18:13;;;;;;;19.23;12.77;;;10.00;42.50;;;;;;5039603;28;20455;-88
2023/04/21 03:20:40;;;;;;;18.70;14.53;;;10.10;99.90;;;;;;5036503;28;20419;-88
2023/04/21 03:23:09;;;;;;;14.80;12.37;;;9.90;81.70;;;;;;5027887;28;20451;-87
2023/04/21 03:25:37;;;;;;;21.83;13.70;;;9.80;99.90;;;;;;5026510;28;20552;-88
2023/04/21 03:28:05;;;;;;;14.87;12.43;;;;;;;;;;5040308;28;20455;-87
2023/04/21 03:30:32;;;;;;;16.40;12.30;;;9.90;99.90;;;;;;5040515;28;20548;-87
2023/04/21 03:33:03;;;;;;;14.43;12.00;;;9.70;99.90;;;;;;5041291;28;20463;-88
2023/04/21 03:35:30;;;;;;;15.27;13.57;;;9.80;99.90;;;;;;5030774;28;20975;-88
2023/04/21 03:37:58;;;;;;;15.60;12.87;;;;;;;;;;5022163;28;20427;-88
2023/04/21 03:40:26;;;;;;;18.50;15.00;;;9.80;98.60;;;;;;5034290;28;20468;-88
2023/04/21 03:42:53;;;;;;;23.00;14.60;;;9.70;99.90;;;;;;5040988;28;20452;-88
2023/04/21 03:45:21;;;;;;;15.97;14.07;;;9.70;99.90;;;;;;5036310;28;20465;-88
2023/04/21 03:47:48;;;;;;;15.77;13.03;;;9.70;99.90;;;;;;5038565;28;20440;-88
2023/04/21 03:50:16;;;;;;;15.63;12.93;;;9.70;99.90;;;;;;5038901;28;20448;-87
2023/04/21 03:52:43;;;;;;;16.30;13.03;;;9.70;95.20;;;;;;5040934;28;20483;-88
2023/04/21 03:55:10;;;;;;;13.80;11.67;;;9.70;96.40;;;;;;5039915;28;20460;-88
2023/04/21 03:57:40;;;;;;;16.10;12.23;;;9.70;77.40;;;;;;5022105;28;20537;-88
2023/04/21 04:00:11;;;;;;;18.27;12.80;;;9.70;92.00;;;;;;5021819;28;20444;-87
2023/04/21 04:02:38;;;;;;;21.27;13.27;;;10.00;99.90;;;;;;5019614;28;20487;-88
2023/04/21 04:05:06;;;;;;;20.80;14.47;;;9.60;97.60;;;;;;5019649;28;20546;-87
2023/04/21 04:07:36;;;;;;;17.30;14.03;;;8.40;99.90;;;;;;5028823;28;21054;-89
2023/04/21 04:10:03;;;;;;;33.13;24.10;;;9.50;99.90;;;;;;5021406;28;21032;-89
2023/04/21 04:12:35;;;;;;;14.03;12.63;;;9.60;99.90;;;;;;5020571;28;20846;-89
2023/04/21 04:15:08;;;;;;;15.23;11.80;;;9.60;76.30;;;;;;5021018;28;20430;-88
2023/04/21 04:17:35;;;;;;;14.07;11.60;;;;;;;;;;5019365;28;20483;-88
2023/04/21 04:20:05;;;;;;;14.30;12.67;;;;;;;;;;5017914;28;20442;-88
2023/04/21 04:22:32;;;;;;;15.10;13.43;;;;;;;;;;5018237;28;20444;-88
2023/04/21 04:25:04;;;;;;;17.10;12.70;;;;;;;;;;5018068;28;20475;-88
2023/04/21 04:27:33;;;;;;;20.83;13.23;;;9.60;44.40;;;;;;5020683;28;20403;-88
2023/04/21 04:30:00;;;;;;;14.73;12.90;;;9.60;99.90;;;;;;5022259;28;20478;-88
2023/04/21 04:32:29;;;;;;;16.13;13.37;;;9.60;58.60;;;;;;5029455;28;20459;-88
2023/04/21 04:34:55;;;;;;;17.00;13.47;;;11.60;99.90;;;;;;5023233;28;20472;-87
2023/04/21 04:37:24;;;;;;;18.20;13.90;;;9.60;46.40;;;;;;5028617;28;20898;-87
2023/04/21 04:39:53;;;;;;;15.53;13.90;;;9.60;60.60;;;;;;5021946;28;20456;-87
2023/04/21 04:42:20;;;;;;;15.40;13.57;;;9.60;50.30;;;;;;5022268;28;20996;-87
2023/04/21 04:44:47;;;;;;;16.23;14.00;;;9.60;36.90;;;;;;5036423;28;20479;-86
2023/04/21 04:47:13;;;;;;;18.00;13.90;;;9.60;37.00;;;;;;5033094;28;20497;-89
2023/04/21 04:49:42;;;;;;;14.50;12.07;;;9.70;23.90;;;;;;5024150;28;20507;-89
2023/04/21 04:52:09;;;;;;;16.77;12.97;;;9.70;20.80;;;;;;5020862;28;20456;-88
2023/04/21 04:54:36;;;;;;;17.60;12.63;;;9.70;7.70;;;;;;5026201;28;20444;-88
2023/04/21 04:57:04;;;;;;;16.53;13.60;;;9.70;11.80;;;;;;5022992;28;20551;-89
2023/04/21 04:59:31;;;;;;;15.73;13.47;;;9.70;1.00;;;;;;5023553;28;20891;-88
2023/04/21 05:02:01;;;;;;;20.23;14.30;;;9.70;1.00;;;;;;5019986;28;20459;-89
2023/04/21 05:04:29;;;;;;;14.90;13.30;;;;;;;;;;5018858;28;20555;-88
2023/04/21 05:06:58;;;;;;;17.40;13.40;;;9.80;1.00;;;;;;5019205;28;20456;-88
2023/04/21 05:09:30;;;;;;;20.80;14.23;;;10.40;1.00;;;;;;5018671;28;21001;-88
2023/04/21 05:11:58;;;;;;;16.30;13.83;;;;;;;;;;5019040;28;20443;-88
2023/04/21 05:14:26;;;;;;;15.87;13.33;;;;;;;;;;5021536;28;20456;-87
2023/04/21 05:16:56;;;;;;;18.63;13.70;;;9.90;1.00;;;;;;5021370;28;20480;-87
2023/04/21 05:19:23;;;;;;;14.73;12.90;;;9.90;1.00;;;;;;5020098;28;20865;-88
2023/04/21 05:21:50;;;;;;;16.53;12.63;;;;;;;;;;5018477;28;20979;-87
2023/04/21 05:24:22;;;;;;;18.90;13.30;;;11.40;1.00;;;;;;5019657;28;20462;-88
2023/04/21 05:26:49;;;;;;;14.50;13.00;;;10.20;99.90;;;;;;5039331;28;20439;-89
2023/04/21 05:29:16;;;;;;;17.43;13.40;;;10.00;1.00;;;;;;5038833;28;20479;-87
2023/04/21 05:31:49;;;;;;;16.50;13.50;;;10.10;1.00;;;;;;5038212;28;20444;-90
2023/04/21 05:34:18;;;;;;;16.23;12.20;;;;;;;;;;5035397;28;20490;-88
2023/04/21 05:36:47;;;;;;;16.53;13.40;;;;;;;;;;5031127;28;20468;-87
2023/04/21 05:39:15;;;;;;;19.93;14.07;;;10.20;1.00;;;;;;5036034;28;20456;-86
2023/04/21 05:44:33;;;;;;;13.70;12.23;;;;;;;;;;5035279;28;20499;-89
2023/04/21 05:47:01;;;;;;;14.83;12.97;;;10.40;1.00;;;;;;5035814;28;20455;-88
2023/04/21 05:49:28;;;;;;;17.57;14.17;;;10.20;99.90;;;;;;5035090;28;20488;-87
2023/04/21 05:51:55;;;;;;;28.43;13.50;;;10.40;99.90;;;;;;5035634;28;20432;-87
2023/04/21 05:54:22;;;;;;;16.60;13.03;;;10.50;1.00;;;;;;5033866;28;20502;-88
2023/04/21 05:56:51;;;;;;;20.17;14.53;;;10.80;99.90;;;;;;5035512;28;20468;-88
2023/04/21 05:59:18;;;;;;;13.50;12.13;;;10.60;1.00;;;;;;5037918;28;20472;-88
2023/04/21 06:01:45;;;;;;;15.77;13.20;;;10.70;1.00;;;;;;5028275;28;20432;-86
2023/04/21 06:04:11;;;;;;;17.10;12.77;;;10.70;1.00;;;;;;5024281;28;20566;-89
2023/04/21 06:06:38;;;;;;;16.53;12.47;;;10.70;1.00;;;;;;5025634;28;20447;-88
2023/04/21 06:09:06;;;;;;;16.30;13.30;;;10.80;1.00;;;;;;5022651;28;20463;-87
2023/04/21 06:11:33;;;;;;;16.70;13.20;;;10.90;1.00;;;;;;5025609;28;20524;-87
2023/04/21 06:14:01;;;;;;;15.60;12.30;;;11.10;51.20;;;;;;5038568;28;20488;-90
2023/04/21 06:16:32;;;;;;;16.83;12.77;;;11.20;94.50;;;;;;5038176;28;20427;-87
2023/04/21 06:18:59;;;;;;;15.17;13.20;;;11.00;1.00;;;;;;5034368;28;20464;-88
2023/04/21 06:21:26;;;;;;;16.23;13.67;;;11.10;1.00;;;;;;5035795;28;20444;-87
2023/04/21 06:26:24;;;;;;;15.20;12.60;;;11.20;1.00;;;;;;5016759;28;20530;-81
2023/04/21 06:28:51;;;;;;;21.63;14.37;;;11.30;1.00;;;;;;5021243;28;20491;-81
2023/04/21 06:31:19;;;;;;;18.60;13.80;;;11.40;1.00;;;;;;5023094;28;20504;-81
2023/04/21 06:33:46;;;;;;;13.50;12.10;;;;;;;;;;5021761;28;20429;-81
2023/04/21 06:36:13;;;;;;;14.70;13.23;;;11.50;1.00;;;;;;5027262;28;20457;-81
2023/04/21 06:38:42;;;;;;;14.30;12.80;;;11.50;1.00;;;;;;5029101;28;20471;-81
2023/04/21 06:41:09;;;;;;;14.97;13.30;;;11.50;1.00;;;;;;5025163;28;20505;-80
2023/04/21 06:43:36;;;;;;;15.50;12.30;;;11.60;1.00;;;;;;5027253;28;20452;-81
2023/04/21 06:46:03;;;;;;;14.57;13.13;;;11.70;1.00;;;;;;5023689;28;20482;-81
2023/04/21 06:48:31;;;;;;;17.03;13.20;;;11.80;1.00;;;;;;5021861;28;20440;-81
2023/04/21 06:50:59;;;;;;;14.60;12.37;;;11.80;1.00;;;;;;5021626;28;20452;-82
2023/04/21 06:53:27;;;;;;;14.13;12.57;;;11.80;1.00;;;;;;5022069;28;20491;-81
2023/04/21 06:55:54;;;;;;;22.07;13.87;;;12.00;1.00;;;;;;5022663;28;20499;-81
2023/04/21 06:58:22;;;;;;;15.33;12.83;;;12.00;1.00;;;;;;5028805;28;20919;-81
2023/04/21 07:00:49;;;;;;;16.30;12.70;;;12.10;1.00;;;;;;5030043;28;20451;-81
2023/04/21 07:03:16;;;;;;;17.93;12.57;;;12.20;1.00;;;;;;5025259;28;20467;-82
2023/04/21 07:05:44;;;;;;;15.50;12.57;;;12.20;1.00;;;;;;5024733;28;21025;-82
2023/04/21 07:08:11;;;;;;;15.77;12.47;;;12.30;1.00;;;;;;5025981;28;20476;-82
2023/04/21 07:10:38;;;;;;;13.23;11.90;;;12.30;1.00;;;;;;5025775;28;20459;-81
2023/04/21 07:13:05;;;;;;;15.10;12.77;;;12.50;1.00;;;;;;5028062;28;20510;-81
2023/04/21 07:15:32;;;;;;;14.33;12.60;;;12.60;1.00;;;;;;5037863;28;20460;-81
2023/04/21 07:17:59;;;;;;;13.80;11.90;;;12.70;1.00;;;;;;5038608;28;20507;-81
2023/04/21 07:20:26;;;;;;;22.13;16.80;;;12.80;1.00;;;;;;5040306;28;20436;-80
2023/04/21 07:22:55;;;;;;;15.27;13.17;;;12.90;1.00;;;;;;5040273;28;20391;-81
2023/04/21 07:25:22;;;;;;;17.43;13.30;;;12.90;1.00;;;;;;5022880;28;20563;-81
2023/04/21 07:27:49;;;;;;;16.07;13.27;;;12.90;1.00;;;;;;5020983;28;20893;-81
2023/04/21 07:30:16;;;;;;;14.43;12.93;;;12.90;1.00;;;;;;5024071;28;20452;-81
2023/04/21 07:32:43;;;;;;;15.20;12.20;;;13.00;1.00;;;;;;5032874;28;20457;-82
2023/04/21 07:35:10;;;;;;;16.27;12.17;;;13.00;1.00;;;;;;5030314;28;21034;-82
2023/04/21 07:37:36;;;;;;;18.10;12.83;;;13.10;1.00;;;;;;5029096;28;20519;-82
2023/04/21 07:40:06;;;;;;;16.30;12.17;;;13.10;1.00;;;;;;5028336;28;20481;-82
2023/04/21 07:42:32;;;;;;;12.93;11.57;;;13.20;1.00;;;;;;5026044;28;20515;-82
2023/04/21 07:45:01;;;;;;;18.97;12.63;;;13.20;1.00;;;;;;5022919;28;20464;-82
2023/04/21 07:47:28;;;;;;;13.47;12.03;;;13.40;1.00;;;;;;5023061;28;20452;-82
2023/04/21 07:49:55;;;;;;;13.90;12.57;;;13.50;1.00;;;;;;5023423;28;20515;-82
2023/04/21 07:52:22;;;;;;;18.80;12.80;;;12.90;1.00;;;;;;5024933;28;20521;-82
2023/04/21 07:54:49;;;;;;;14.17;12.73;;;13.60;1.00;;;;;;5024752;28;20500;-82
2023/04/21 07:57:17;;;;;;;17.87;13.07;;;14.00;1.00;;;;;;5033692;28;20491;-81
2023/04/21 07:59:44;;;;;;;15.50;12.13;;;13.80;1.00;;;;;;5036984;28;20524;-83
2023/04/21 08:02:11;;;;;;;14.77;13.00;;;13.90;1.00;;;;;;5024802;28;20534;-82
2023/04/21 08:04:38;;;;;;;14.57;11.27;;;13.90;1.00;;;;;;5025192;28;20468;-82
2023/04/21 08:07:05;;;;;;;17.03;13.67;;;14.10;1.00;;;;;;5024056;28;20538;-81
2023/04/21 08:09:32;;;;;;;13.90;12.50;;;14.20;1.00;;;;;;5024003;28;20478;-81
2023/04/21 08:12:06;;;;;;;13.37;11.97;;;14.20;1.00;;;;;;5023260;28;20447;-82
2023/04/21 08:14:37;;;;;;;13.67;12.20;;;14.20;1.00;;;;;;5018935;28;21033;-84
2023/04/21 08:17:05;;;;;;;15.07;12.43;;;14.20;1.00;;;;;;5017957;28;20448;-83
2023/04/21 08:19:32;;;;;;;13.67;11.30;;;;;;;;;;5018552;28;20436;-82
2023/04/21 08:21:59;;;;;;;18.67;11.83;;;;;;;;;;5018607;28;20483;-82
2023/04/21 08:24:26;;;;;;;14.50;11.17;;;14.40;1.00;;;;;;5023008;28;20547;-82
2023/04/21 08:26:53;;;;;;;14.60;12.50;;;14.50;1.00;;;;;;5023729;28;20437;-81
2023/04/21 08:29:20;;;;;;;14.17;12.40;;;14.60;1.00;;;;;;5023104;28;20447;-80
2023/04/21 08:31:48;;;;;;;12.83;11.13;;;14.70;1.00;;;;;;5023300;28;20426;-81
2023/04/21 08:34:15;;;;;;;15.80;13.53;;;14.70;1.00;;;;;;5022733;28;20832;-82
2023/04/21 08:36:43;;;;;;;13.67;11.13;;;14.80;1.00;;;;;;5022928;28;20992;-82
2023/04/21 08:39:10;;;;;;;21.27;12.83;;;14.80;1.00;;;;;;5022258;28;20491;-81
2023/04/21 08:41:40;;;;;;;15.57;13.17;;;14.90;1.00;;;;;;5021670;28;20923;-82
2023/04/21 08:44:06;;;;;;;13.67;12.10;;;14.90;1.00;;;;;;5020894;28;20479;-82
2023/04/21 08:46:34;;;;;;;12.93;11.50;;;14.90;1.00;;;;;;5031768;28;20463;-81
2023/04/21 08:49:03;;;;;;;17.67;12.33;;;15.00;1.00;;;;;;5038033;28;20515;-83
2023/04/21 08:51:30;;;;;;;16.10;12.53;;;15.10;1.00;;;;;;5036104;28;20463;-79
2023/04/21 08:53:57;;;;;;;11.67;10.53;;;15.40;1.00;;;;;;5035475;28;20458;-79
2023/04/21 08:56:25;;;;;;;13.27;11.50;;;15.30;1.00;;;;;;5033580;28;20458;-79
2023/04/21 08:58:57;;;;;;;11.97;10.87;;;15.40;1.00;;;;;;5031457;28;20482;-80
2023/04/21 09:01:25;;;;;;;12.63;10.90;;;15.40;1.00;;;;;;5019392;28;20447;-81
2023/04/21 09:03:52;;;;;;;14.37;11.80;;;15.50;1.00;;;;;;5020691;28;20813;-82
2023/04/21 09:06:20;;;;;;;17.10;12.47;;;15.60;1.00;;;;;;5020255;28;20452;-81
2023/04/21 09:08:54;;;;;;;13.40;11.93;;;15.70;1.00;;;;;;5022913;28;20530;-80
2023/04/21 09:11:22;;;;;;;12.37;10.77;;;15.80;1.00;;;;;;5030329;28;20420;-81
2023/04/21 09:13:49;;;;;;;12.80;11.00;;;15.80;1.00;;;;;;5031693;28;20451;-79
2023/04/21 09:16:19;;;;;;;13.50;11.27;;;15.90;1.00;;;;;;5028410;28;20447;-81
2023/04/21 09:18:45;;;;;;;12.57;11.33;;;16.00;1.00;;;;;;5029791;28;20476;-81
2023/04/21 09:21:14;;;;;;;12.83;11.73;;;16.10;1.00;;;;;;5023127;28;20502;-81
2023/04/21 09:23:43;;;;;;;13.13;11.77;;;16.20;1.00;;;;;;5019950;28;20893;-81
2023/04/21 09:26:11;;;;;;;13.50;12.17;;;16.30;1.00;;;;;;5018147;28;20859;-81
2023/04/21 09:28:41;;;;;;;13.13;11.43;;;16.40;1.00;;;;;;5019348;28;20472;-81
2023/04/21 09:31:14;;;;;;;15.47;11.57;;;16.30;1.00;;;;;;5018703;28;20977;-82
2023/04/21 09:33:45;;;;;;;12.63;10.97;;;16.40;1.00;;;;;;5018927;28;20460;-82
2023/04/21 09:36:19;;;;;;;11.43;10.33;;;16.40;1.00;;;;;;5018170;28;20439;-82
2023/04/21 09:38:50;;;;;;;13.60;10.97;;;16.30;1.00;;;;;;5017769;28;20979;-81
2023/04/21 09:41:18;;;;;;;13.40;12.00;;;16.50;1.00;;;;;;5020293;28;20463;-82
2023/04/21 09:43:45;;;;;;;12.57;11.27;;;16.50;1.00;;;;;;5025470;28;20475;-82
2023/04/21 09:46:12;;;;;;;14.30;12.07;;;16.50;1.00;;;;;;5023361;28;20447;-82
2023/04/21 09:48:43;;;;;;;11.60;10.43;;;16.60;1.00;;;;;;5024492;28;20507;-82
2023/04/21 09:51:12;;;;;;;13.20;10.70;;;16.50;1.00;;;;;;5026236;28;20456;-81
2023/04/21 09:53:40;;;;;;;11.20;10.00;;;16.60;99.90;;;;;;5026514;28;20472;-80
2023/04/21 09:56:11;;;;;;;13.40;12.00;;;16.60;99.90;;;;;;5023674;28;20522;-80
2023/04/21 09:58:48;;;;;;;11.50;10.30;;;16.70;1.00;;;;;;5024394;28;20536;-81
2023/04/21 10:01:19;;;;;;;12.40;10.73;;;16.90;99.90;;;;;;5020225;28;20432;-81
2023/04/21 10:03:48;;;;;;;13.47;11.20;;;17.00;99.90;;;;;;5019496;28;20950;-82
2023/04/21 10:06:15;;;;;;;15.33;11.63;;;17.00;1.00;;;;;;5022019;28;20587;-81
2023/04/21 10:08:43;;;;;;;11.40;10.30;;;17.00;99.90;;;;;;5019255;28;20435;-80
2023/04/21 10:11:12;;;;;;;13.60;10.33;;;17.10;99.90;;;;;;5018653;28;20448;-82
2023/04/21 10:13:41;;;;;;;13.20;11.37;;;17.20;99.90;;;;;;5018357;28;20448;-81
2023/04/21 10:16:09;;;;;;;11.60;10.20;;;17.20;99.90;;;;;;5018197;28;20468;-80
2023/04/21 10:18:38;;;;;;;11.40;10.20;;;17.20;99.90;;;;;;5017967;28;20480;-81
2023/04/21 10:21:07;;;;;;;11.17;10.17;;;17.40;99.90;;;;;;5018689;28;20426;-81
2023/04/21 10:23:38;;;;;;;15.10;11.97;;;17.50;99.90;;;;;;5018267;28;20893;-81
2023/04/21 10:26:08;;;;;;;12.73;10.00;;;17.60;99.90;;;;;;5018292;28;20472;-80
2023/04/21 10:28:52;;;;;;;11.77;9.10;;;17.70;99.90;;;;;;5019337;28;20468;-81
2023/04/21 10:31:34;;;;;;;11.20;9.67;;;17.90;1.00;;;;;;5026648;28;20942;-81
2023/04/21 10:34:21;;;;;;;13.77;10.37;;;17.70;99.90;;;;;;5025807;28;20502;-80
2023/04/21 10:37:08;;;;;;;11.13;10.00;;;17.70;99.90;;;;;;5029880;28;20439;-81
2023/04/21 10:39:36;;;;;;;13.30;10.47;;;17.80;99.90;;;;;;5028519;28;20472;-80
2023/04/21 10:42:21;;;;;;;15.67;12.87;;;17.80;99.90;;;;;;5030667;28;20565;-80
2023/04/21 10:44:54;;;;;;;10.90;9.80;;;17.80;99.90;;;;;;5028757;28;20474;-80
2023/04/21 10:47:28;;;;;;;10.33;9.03;;;17.90;99.90;;;;;;5027496;28;20436;-80
2023/04/21 10:49:57;;;;;;;10.40;9.30;;;18.00;99.90;;;;;;5026677;28;20483;-82
2023/04/21 10:52:32;;;;;;;11.07;9.90;;;17.90;99.90;;;;;;5026303;28;20472;-81
2023/04/21 10:55:09;;;;;;;12.77;9.30;;;18.00;99.90;;;;;;5023230;28;20471;-81
2023/04/21 10:57:36;;;;;;;11.00;10.00;;;18.00;99.90;;;;;;5022997;28;20432;-81
2023/04/21 11:00:07;;;;;;;10.60;9.70;;;18.00;99.90;;;;;;5021352;28;20482;-81
2023/04/21 11:02:35;;;;;;;11.83;9.67;;;18.10;99.90;;;;;;5021236;28;20454;-81
2023/04/21 11:05:02;;;;;;;12.27;10.40;;;18.10;99.90;;;;;;5022167;28;20468;-81
2023/04/21 11:07:29;;;;;;;12.93;10.80;;;18.10;99.90;;;;;;5024720;28;20451;-80
2023/04/21 11:09:59;;;;;;;9.60;8.80;;;18.10;99.90;;;;;;5038378;28;20531;-80
2023/04/21 11:12:28;;;;;;;11.57;9.90;;;18.10;99.90;;;;;;5034259;28;20454;-80
2023/04/21 11:14:56;;;;;;;14.00;9.77;;;18.20;99.90;;;;;;5035189;28;20474;-80
2023/04/21 11:17:25;;;;;;;10.30;9.20;;;18.20;99.90;;;;;;5035301;28;20451;-80
2023/04/21 11:19:53;;;;;;;9.33;8.53;;;18.10;1.00;;;;;;5036132;28;20475;-81
2023/04/21 11:22:22;;;;;;;10.67;8.93;;;18.20;99.90;;;;;;5036331;28;20487;-80
2023/04/21 11:24:50;;;;;;;16.07;12.63;;;18.30;99.90;;;;;;5036484;28;20472;-80
2023/04/21 11:27:18;;;;;;;11.50;9.20;;;18.50;1.00;;;;;;5037114;28;20444;-80
2023/04/21 11:29:46;;;;;;;13.43;9.43;;;18.40;99.90;;;;;;5027851;28;20440;-80
2023/04/21 11:32:14;;;;;;;9.77;8.93;;;18.50;99.90;;;;;;5029680;28;20443;-80
2023/04/21 11:34:42;;;;;;;9.30;8.30;;;18.50;99.90;;;;;;5035265;28;20502;-79
2023/04/21 11:37:10;;;;;;;9.90;9.00;;;18.50;99.90;;;;;;5034486;28;20528;-80
2023/04/21 11:39:42;;;;;;;9.93;8.60;;;18.70;1.00;;;;;;5024342;28;20508;-81
2023/04/21 11:42:09;;;;;;;12.73;9.73;;;18.70;99.90;;;;;;5027097;28;20440;-81
2023/04/21 11:44:38;;;;;;;11.43;10.33;;;18.90;99.90;;;;;;5022908;28;20506;-81
2023/04/21 11:47:15;;;;;;;14.07;9.07;;;19.10;1.00;;;;;;5021295;28;20531;-82
2023/04/21 11:49:47;;;;;;;10.73;9.63;;;18.90;99.90;;;;;;5023474;28;20448;-80
2023/04/21 11:52:25;;;;;;;16.53;9.47;;;19.00;99.90;;;;;;5021631;28;20475;-81
2023/04/21 11:54:56;;;;;;;12.20;11.03;;;19.20;99.90;;;;;;5022808;28;20558;-81
2023/04/21 11:57:24;;;;;;;10.63;9.50;;;19.30;99.90;;;;;;5023944;28;20859;-81
2023/04/21 11:59:51;;;;;;;11.97;9.87;;;19.30;99.90;;;;;;5022768;28;20745;-81
2023/04/21 12:02:23;;;;;;;14.63;9.47;;;19.40;99.90;;;;;;5021178;28;20448;-81
2023/04/21 12:05:03;;;;;;;10.83;9.73;;;19.30;99.90;;;;;;5020197;28;20479;-81
2023/04/21 12:07:31;;;;;;;11.30;9.70;;;19.00;99.90;;;;;;5024238;28;20444;-81
2023/04/21 12:09:58;;;;;;;10.30;9.23;;;19.40;1.00;;;;;;5025777;28;20441;-81
2023/04/21 12:12:25;;;;;;;11.10;9.10;;;19.40;1.00;;;;;;5025841;28;20444;-81
2023/04/21 12:14:52;;;;;;;9.10;8.27;;;19.40;1.00;;;;;;5023986;28;20562;-80
2023/04/21 12:17:20;;;;;;;11.17;9.97;;;19.40;1.00;;;;;;5021451;28;20542;-81
2023/04/21 12:19:47;;;;;;;10.10;9.10;;;19.40;99.90;;;;;;5021165;28;21015;-81
2023/04/21 12:22:17;;;;;;;11.30;9.17;;;19.40;99.90;;;;;;5020275;28;20881;-80
2023/04/21 12:24:45;;;;;;;11.93;8.30;;;19.60;1.00;;;;;;5042364;23;21097;-88
2023/04/21 12:27:23;;;;;;;9.23;8.40;;;;;;;;;;5021255;28;20789;-88
2023/04/21 12:32:54;;;;;;;9.80;8.90;;;;;;;;;;5019300;28;20444;-88
2023/04/21 12:35:28;;;;;;;10.60;8.90;;;19.40;99.90;;;;;;5020830;28;20534;-88
2023/04/21 12:38:05;;;;;;;10.80;8.83;;;19.50;99.90;;;;;;5020062;28;20459;-89
2023/04/21 12:40:42;;;;;;;11.43;9.07;;;20.20;99.90;;;;;;5020399;28;20488;-89
2023/04/21 12:43:09;;;;;;;9.80;8.80;;;;;;;;;;5020773;28;20443;-88
2023/04/21 12:45:46;;;;;;;10.80;9.80;;;19.80;99.90;;;;;;5032141;28;20487;-89
2023/04/21 12:51:14;;;;;;;8.67;7.87;;;19.70;99.90;;;;;;5022475;28;20545;-89
2023/04/21 12:53:56;;;;;;;9.20;7.93;;;19.60;99.90;;;;;;5030513;28;20495;-88
2023/04/21 12:56:29;;;;;;;9.67;8.67;;;19.60;99.90;;;;;;5026718;28;20973;-88
2023/04/21 12:59:01;;;;;;;15.60;9.00;;;19.60;99.90;;;;;;5024715;28;20502;-88
2023/04/21 13:04:52;;;;;;;9.50;8.03;;;19.30;1.00;;;;;;4960065;28;20479;-89
2023/04/21 13:07:30;;;;;;;8.83;8.00;;;19.20;99.90;;;;;;5021560;28;20543;-88
2023/04/21 13:10:25;;;;;;;9.13;7.73;;;19.50;1.00;;;;;;5035762;28;20479;-88
2023/04/21 13:13:07;;;;;;;8.43;7.63;;;;;;;;;;5039010;28;20442;-88